createdAt,value
2022-08-08T00:02:03.354Z,100642.31
2022-08-08T00:04:30.689Z,100640.06
2022-08-08T00:07:17.325Z,100640.06
2022-08-08T00:09:48.015Z,100642.09
2022-08-08T00:12:36.917Z,100643.53
2022-08-08T00:15:57.645Z,100642.72
2022-08-08T00:18:28.742Z,100649.88
2022-08-08T00:20:58.823Z,100648.59
2022-08-08T00:23:51.839Z,100647.78
2022-08-08T00:26:31.792Z,100647.38
2022-08-08T00:29:11.583Z,100654.34
2022-08-08T00:32:28.362Z,100651.03
2022-08-08T00:35:04.637Z,100650.03
2022-08-08T00:37:47.975Z,100653.72
2022-08-08T00:41:07.807Z,100658.81
2022-08-08T00:44:00.911Z,100660.84
2022-08-08T00:46:57.622Z,100653.06
2022-08-08T00:49:50.473Z,100663.06
2022-08-08T00:52:56.022Z,100655.44
2022-08-08T00:55:36.347Z,100656.25
2022-08-08T00:58:35.898Z,100652.56
2022-08-08T01:01:15.845Z,100648.03
2022-08-08T01:04:22.257Z,100652.13
2022-08-08T01:07:11.072Z,100653.13
2022-08-08T01:09:58.827Z,100644.97
2022-08-08T01:13:01.631Z,100648.81
2022-08-08T01:15:44.489Z,100640.03
2022-08-08T01:18:25.458Z,100642.69
2022-08-08T01:22:05.736Z,100640.81
2022-08-08T01:24:54.355Z,100639.00
2022-08-08T01:27:43.475Z,100644.31
2022-08-08T01:30:45.834Z,100638.34
2022-08-08T01:33:54.149Z,100640.38
2022-08-08T01:37:02.020Z,100636.31
2022-08-08T01:40:02.617Z,100637.34
2022-08-08T01:42:50.121Z,100637.53
2022-08-08T01:45:22.716Z,100639.78
2022-08-08T01:48:31.263Z,100636.09
2022-08-08T01:52:04.777Z,100628.28
2022-08-08T01:55:45.428Z,100628.72
2022-08-08T01:58:04.561Z,100620.72
2022-08-08T02:00:57.620Z,100621.94
2022-08-08T02:04:00.850Z,100616.16
2022-08-08T02:06:57.462Z,100614.94
2022-08-08T02:10:01.868Z,100618.00
2022-08-08T02:12:53.500Z,100618.16
2022-08-08T02:15:53.040Z,100614.06
2022-08-08T02:18:43.551Z,100611.81
2022-08-08T02:21:37.135Z,100610.16
2022-08-08T02:24:24.998Z,100599.94
2022-08-08T02:27:17.366Z,100607.69
2022-08-08T02:30:04.465Z,100605.19
2022-08-08T02:32:55.269Z,100603.38
2022-08-08T02:35:35.669Z,100598.03
2022-08-08T02:38:34.618Z,100607.91
2022-08-08T02:41:59.405Z,100606.63
2022-08-08T02:44:38.612Z,100609.69
2022-08-08T02:47:27.133Z,100616.56
2022-08-08T02:50:27.987Z,100623.66
2022-08-08T02:53:22.416Z,100613.38
2022-08-08T02:56:17.802Z,100618.25
2022-08-08T02:59:26.027Z,100624.78
2022-08-08T03:02:37.964Z,100627.03
2022-08-08T03:05:22.681Z,100617.84
2022-08-08T03:08:29.435Z,100613.25
2022-08-08T03:11:37.724Z,100613.00
2022-08-08T03:16:03.866Z,100616.28
2022-08-08T03:18:04.484Z,100612.78
2022-08-08T03:20:53.495Z,100612.00
2022-08-08T03:23:54.815Z,100607.09
2022-08-08T03:26:30.795Z,100618.53
2022-08-08T03:29:18.649Z,100623.25
2022-08-08T03:32:09.459Z,100619.78
2022-08-08T03:34:42.092Z,100617.19
2022-08-08T03:37:58.842Z,100612.84
2022-08-08T03:40:29.929Z,100613.69
2022-08-08T03:42:58.694Z,100611.47
2022-08-08T03:46:05.005Z,100612.34
2022-08-08T03:49:09.527Z,100607.25
2022-08-08T03:51:40.424Z,100604.81
2022-08-08T03:54:41.113Z,100604.63
2022-08-08T03:58:09.599Z,100610.19
2022-08-08T04:00:08.069Z,100607.56
2022-08-08T04:02:57.507Z,100608.63
2022-08-08T04:05:29.208Z,100605.78
2022-08-08T04:08:07.202Z,100615.03
2022-08-08T04:10:38.240Z,100610.31
2022-08-08T04:13:18.218Z,100615.44
2022-08-08T04:15:55.223Z,100615.84
2022-08-08T04:18:42.217Z,100615.19
2022-08-08T04:21:20.038Z,100614.16
2022-08-08T04:24:05.480Z,100617.25
2022-08-08T04:26:57.572Z,100615.41
2022-08-08T04:29:36.799Z,100628.91
2022-08-08T04:32:10.478Z,100631.09
2022-08-08T04:34:49.392Z,100632.31
2022-08-08T04:37:32.461Z,100631.09
2022-08-08T04:40:10.613Z,100639.56
2022-08-08T04:42:57.031Z,100636.69
2022-08-08T04:45:29.898Z,100631.41
2022-08-08T04:48:01.595Z,100633.69
2022-08-08T04:50:38.657Z,100637.66
2022-08-08T04:54:36.023Z,100638.91
2022-08-08T04:56:02.735Z,100639.38
2022-08-08T04:58:34.536Z,100635.69
2022-08-08T05:01:10.729Z,100632.59
2022-08-08T05:04:10.824Z,100634.50
2022-08-08T05:06:39.303Z,100631.63
2022-08-08T05:09:09.542Z,100637.00
2022-08-08T05:11:41.919Z,100632.88
2022-08-08T05:14:20.584Z,100636.56
2022-08-08T05:17:01.138Z,100635.53
2022-08-08T05:20:09.656Z,100631.03
2022-08-08T05:22:29.771Z,100629.38
2022-08-08T05:25:00.437Z,100632.44
2022-08-08T05:27:33.216Z,100633.50
2022-08-08T05:30:03.690Z,100627.72
2022-08-08T05:32:46.837Z,100625.44
2022-08-08T05:35:23.402Z,100615.94
2022-08-08T05:38:00.781Z,100625.44
2022-08-08T05:40:57.847Z,100629.25
2022-08-08T05:44:02.263Z,100621.94
2022-08-08T05:46:24.514Z,100623.44
2022-08-08T05:48:55.058Z,100629.09
2022-08-08T05:51:37.490Z,100628.44
2022-08-08T05:54:29.018Z,100634.78
2022-08-08T05:57:20.902Z,100638.63
2022-08-08T06:00:24.747Z,100643.91
2022-08-08T06:03:17.268Z,100651.06
2022-08-08T06:05:56.628Z,100656.16
2022-08-08T06:08:35.784Z,100654.78
2022-08-08T06:11:10.381Z,100660.59
2022-08-08T06:13:47.334Z,100664.53
2022-08-08T06:16:18.951Z,100659.56
2022-08-08T06:18:55.416Z,100667.91
2022-08-08T06:21:48.670Z,100668.44
2022-08-08T06:24:23.299Z,100669.13
2022-08-08T06:27:10.045Z,100666.69
2022-08-08T06:30:00.407Z,100671.69
2022-08-08T06:33:00.993Z,100674.94
2022-08-08T06:36:07.312Z,100686.13
2022-08-08T06:38:28.753Z,100688.50
2022-08-08T06:41:04.896Z,100691.03
2022-08-08T06:43:40.617Z,100697.66
2022-08-08T06:46:23.896Z,100709.63
2022-08-08T06:48:55.632Z,100710.72
2022-08-08T06:51:25.197Z,100718.31
2022-08-08T06:54:05.176Z,100708.09
2022-08-08T06:56:36.955Z,100710.84
2022-08-08T06:59:12.042Z,100714.69
2022-08-08T07:02:27.351Z,100719.94
2022-08-08T07:04:56.315Z,100715.63
2022-08-08T07:07:49.946Z,100725.69
2022-08-08T07:10:21.252Z,100717.38
2022-08-08T07:13:05.124Z,100718.66
2022-08-08T07:16:04.649Z,100712.09
2022-08-08T07:19:02.944Z,100726.03
2022-08-08T07:21:45.814Z,100721.06
2022-08-08T07:24:50.964Z,100731.78
2022-08-08T07:27:35.401Z,100725.66
2022-08-08T07:30:19.721Z,100727.19
2022-08-08T07:32:59.362Z,100723.13
2022-08-08T07:35:31.022Z,100727.69
2022-08-08T07:38:09.765Z,100731.50
2022-08-08T07:40:59.289Z,100731.91
2022-08-08T07:43:36.940Z,100733.38
2022-08-08T07:46:23.791Z,100738.84
2022-08-08T07:49:00.983Z,100736.16
2022-08-08T07:51:44.973Z,100737.28
2022-08-08T07:54:34.674Z,100738.91
2022-08-08T07:57:27.708Z,100739.16
2022-08-08T08:00:16.378Z,100743.56
2022-08-08T08:03:45.572Z,100743.00
2022-08-08T08:06:21.574Z,100742.09
2022-08-08T08:09:23.999Z,100744.50
2022-08-08T08:11:56.969Z,100755.16
2022-08-08T08:14:58.294Z,100748.53
2022-08-08T08:17:44.158Z,100747.25
2022-08-08T08:20:20.696Z,100749.88
2022-08-08T08:22:50.025Z,100744.69
2022-08-08T08:25:40.766Z,100743.06
2022-08-08T08:28:09.415Z,100744.19
2022-08-08T08:30:39.389Z,100746.09
2022-08-08T08:33:10.920Z,100736.47
2022-08-08T08:36:19.423Z,100742.03
2022-08-08T08:38:29.745Z,100740.38
2022-08-08T08:41:13.219Z,100745.06
2022-08-08T08:43:49.767Z,100740.78
2022-08-08T08:46:19.378Z,100746.28
2022-08-08T08:48:55.079Z,100751.38
2022-08-08T08:51:29.536Z,100750.66
2022-08-08T08:54:03.139Z,100745.53
2022-08-08T08:56:37.886Z,100743.84
2022-08-08T08:59:15.318Z,100747.13
2022-08-08T09:01:53.527Z,100745.88
2022-08-08T09:04:39.606Z,100751.94
2022-08-08T09:07:23.189Z,100745.47
2022-08-08T09:09:58.224Z,100745.75
2022-08-08T09:12:35.766Z,100745.13
2022-08-08T09:15:06.038Z,100745.59
2022-08-08T09:17:41.987Z,100736.91
2022-08-08T09:21:59.579Z,100735.50
2022-08-08T09:23:25.527Z,100737.47
2022-08-08T09:26:05.723Z,100732.13
2022-08-08T09:28:40.345Z,100737.34
2022-08-08T09:31:56.176Z,100725.56
2022-08-08T09:34:34.994Z,100728.00
2022-08-08T09:37:57.520Z,100729.88
2022-08-08T09:40:10.501Z,100718.53
2022-08-08T09:42:51.458Z,100719.03
2022-08-08T09:46:00.984Z,100716.91
2022-08-08T09:48:36.321Z,100711.47
2022-08-08T09:51:08.880Z,100718.50
2022-08-08T09:53:59.959Z,100715.81
2022-08-08T09:56:45.480Z,100713.00
2022-08-08T10:00:02.529Z,100713.59
2022-08-08T10:02:25.004Z,100706.56
2022-08-08T10:05:15.161Z,100695.88
2022-08-08T10:07:52.199Z,100698.31
2022-08-08T10:10:38.756Z,100699.28
2022-08-08T10:13:32.358Z,100696.41
2022-08-08T10:16:04.256Z,100699.25
2022-08-08T10:18:36.187Z,100695.69
2022-08-08T10:21:22.740Z,100696.03
2022-08-08T10:23:58.909Z,100688.19
2022-08-08T10:26:57.310Z,100687.25
2022-08-08T10:29:58.985Z,100683.59
2022-08-08T10:32:35.193Z,100677.59
2022-08-08T10:35:20.358Z,100689.44
2022-08-08T10:38:08.344Z,100682.09
2022-08-08T10:40:38.910Z,100679.69
2022-08-08T10:43:09.679Z,100679.44
2022-08-08T10:45:55.557Z,100670.28
2022-08-08T10:48:57.072Z,100674.31
2022-08-08T10:51:34.637Z,100669.47
2022-08-08T10:54:10.410Z,100670.06
2022-08-08T10:56:43.316Z,100660.56
2022-08-08T10:59:14.058Z,100667.44
2022-08-08T11:01:54.548Z,100660.09
2022-08-08T11:04:38.626Z,100661.25
2022-08-08T11:07:39.125Z,100659.91
2022-08-08T11:10:04.224Z,100652.69
2022-08-08T11:12:38.404Z,100655.16
2022-08-08T11:15:07.200Z,100649.53
2022-08-08T11:17:59.876Z,100648.97
2022-08-08T11:20:28.201Z,100646.06
2022-08-08T11:22:59.019Z,100655.09
2022-08-08T11:25:53.256Z,100649.63
2022-08-08T11:28:25.059Z,100650.19
2022-08-08T11:30:57.955Z,100647.19
2022-08-08T11:33:51.363Z,100648.03
2022-08-08T11:36:17.535Z,100641.06
2022-08-08T11:38:53.709Z,100641.31
2022-08-08T11:41:24.387Z,100628.34
2022-08-08T11:43:57.785Z,100640.72
2022-08-08T11:46:30.401Z,100640.69
2022-08-08T11:49:04.945Z,100635.34
2022-08-08T11:51:39.737Z,100629.47
2022-08-08T11:54:27.112Z,100638.28
2022-08-08T11:57:14.630Z,100637.94
2022-08-08T12:00:05.946Z,100635.00
2022-08-08T12:02:51.040Z,100637.84
2022-08-08T12:05:30.794Z,100631.41
2022-08-08T12:08:02.669Z,100635.47
2022-08-08T12:10:33.603Z,100633.09
2022-08-08T12:13:03.416Z,100636.81
2022-08-08T12:15:41.743Z,100636.03
2022-08-08T12:18:24.319Z,100630.13
2022-08-08T12:20:59.541Z,100628.81
2022-08-08T12:23:43.636Z,100626.44
2022-08-08T12:26:35.181Z,100623.44
2022-08-08T12:29:39.952Z,100627.56
2022-08-08T12:32:20.269Z,100618.59
2022-08-08T12:35:00.879Z,100620.53
2022-08-08T12:37:41.694Z,100628.09
2022-08-08T12:40:23.545Z,100614.53
2022-08-08T12:42:53.438Z,100623.47
2022-08-08T12:45:59.517Z,100623.19
2022-08-08T12:48:36.684Z,100626.47
2022-08-08T12:51:18.844Z,100622.38
2022-08-08T12:54:01.351Z,100620.50
2022-08-08T12:56:38.144Z,100619.94
2022-08-08T12:59:27.414Z,100624.78
2022-08-08T13:02:08.032Z,100613.41
2022-08-08T13:04:37.585Z,100612.91
2022-08-08T13:07:16.980Z,100620.53
2022-08-08T13:10:04.526Z,100612.91
2022-08-08T13:12:48.524Z,100617.25
2022-08-08T13:15:19.446Z,100604.81
2022-08-08T13:18:08.046Z,100608.31
2022-08-08T13:20:45.440Z,100603.13
2022-08-08T13:23:30.740Z,100599.63
2022-08-08T13:26:03.980Z,100604.19
2022-08-08T13:28:42.273Z,100597.41
2022-08-08T13:31:16.597Z,100596.84
2022-08-08T13:33:50.210Z,100595.28
2022-08-08T13:36:26.172Z,100599.94
2022-08-08T13:39:00.299Z,100587.75
2022-08-08T13:41:39.323Z,100585.84
2022-08-08T13:44:14.432Z,100590.47
2022-08-08T13:47:02.803Z,100582.91
2022-08-08T13:50:35.642Z,100586.66
2022-08-08T13:52:36.029Z,100584.78
2022-08-08T13:55:07.568Z,100586.13
2022-08-08T13:58:06.699Z,100574.50
2022-08-08T14:00:24.731Z,100578.56
2022-08-08T14:03:00.612Z,100578.28
2022-08-08T14:05:36.189Z,100567.75
2022-08-08T14:08:29.905Z,100560.66
2022-08-08T14:11:02.841Z,100560.38
2022-08-08T14:13:33.776Z,100564.44
2022-08-08T14:16:16.160Z,100557.69
2022-08-08T14:19:00.605Z,100554.69
2022-08-08T14:21:52.348Z,100551.38
2022-08-08T14:24:34.744Z,100549.03
2022-08-08T14:27:07.725Z,100554.47
2022-08-08T14:29:39.488Z,100540.97
2022-08-08T14:32:16.068Z,100536.94
2022-08-08T14:35:01.203Z,100536.22
2022-08-08T14:37:59.931Z,100534.13
2022-08-08T14:40:29.942Z,100528.50
2022-08-08T14:43:01.546Z,100527.13
2022-08-08T14:46:03.130Z,100530.41
2022-08-08T14:49:20.111Z,100525.53
2022-08-08T14:51:53.585Z,100533.66
2022-08-08T14:54:28.547Z,100529.31
2022-08-08T14:57:04.021Z,100526.88
2022-08-08T14:59:50.814Z,100539.81
2022-08-08T15:02:30.680Z,100532.50
2022-08-08T15:05:08.188Z,100528.91
2022-08-08T15:07:41.743Z,100529.97
2022-08-08T15:10:14.715Z,100522.66
2022-08-08T15:12:43.685Z,100527.31
2022-08-08T15:15:18.730Z,100534.31
2022-08-08T15:18:02.847Z,100528.56
2022-08-08T15:20:31.152Z,100532.34
2022-08-08T15:22:59.499Z,100539.59
2022-08-08T15:25:33.117Z,100531.44
2022-08-08T15:28:04.345Z,100534.88
2022-08-08T15:30:50.896Z,100535.88
2022-08-08T15:33:35.079Z,100536.16
2022-08-08T15:36:07.751Z,100537.59
2022-08-08T15:38:40.547Z,100539.03
2022-08-08T15:41:17.840Z,100542.25
2022-08-08T15:44:00.570Z,100541.97
2022-08-08T15:46:34.795Z,100539.56
2022-08-08T15:49:04.391Z,100546.59
2022-08-08T15:51:33.568Z,100551.41
2022-08-08T15:54:04.168Z,100545.44
2022-08-08T15:56:32.557Z,100554.56
2022-08-08T15:59:01.782Z,100547.66
2022-08-08T16:01:40.963Z,100548.91
2022-08-08T16:04:18.899Z,100550.56
2022-08-08T16:06:50.745Z,100550.91
2022-08-08T16:13:04.076Z,100557.94
2022-08-08T16:13:09.906Z,100556.34
2022-08-08T16:14:55.961Z,100556.50
2022-08-08T16:17:58.146Z,100555.41
2022-08-08T16:20:14.760Z,100557.56
2022-08-08T16:22:50.117Z,100559.88
2022-08-08T16:25:20.579Z,100558.72
2022-08-08T16:27:56.864Z,100552.63
2022-08-08T16:30:32.587Z,100552.88
2022-08-08T16:33:04.774Z,100552.53
2022-08-08T16:35:34.523Z,100552.03
2022-08-08T16:38:03.828Z,100551.75
2022-08-08T16:40:32.500Z,100546.50
2022-08-08T16:43:00.793Z,100547.09
2022-08-08T16:46:38.899Z,100541.69
2022-08-08T16:48:18.449Z,100537.31
2022-08-08T16:50:47.872Z,100535.88
2022-08-08T16:55:04.277Z,100535.59
2022-08-08T16:56:14.389Z,100536.56
2022-08-08T16:58:43.785Z,100540.09
2022-08-08T17:01:15.881Z,100543.31
2022-08-08T17:04:01.173Z,100543.53
2022-08-08T17:06:37.563Z,100541.59
2022-08-08T17:09:15.909Z,100547.66
2022-08-08T17:11:55.504Z,100539.16
2022-08-08T17:14:34.108Z,100538.09
2022-08-08T17:17:04.464Z,100540.78
2022-08-08T17:19:40.856Z,100537.25
2022-08-08T17:22:12.431Z,100546.38
2022-08-08T17:24:40.890Z,100547.56
2022-08-08T17:27:10.465Z,100544.16
2022-08-08T17:29:43.395Z,100554.94
2022-08-08T17:32:15.309Z,100559.50
2022-08-08T17:35:27.635Z,100558.41
2022-08-08T17:37:35.809Z,100564.81
2022-08-08T17:40:13.052Z,100573.91
2022-08-08T17:42:47.036Z,100574.69
2022-08-08T17:45:22.965Z,100581.88
2022-08-08T17:47:53.894Z,100580.19
2022-08-08T17:50:23.670Z,100586.88
2022-08-08T17:52:53.701Z,100590.50
2022-08-08T17:56:05.736Z,100588.53
2022-08-08T17:58:11.836Z,100591.81
2022-08-08T18:00:41.553Z,100590.06
2022-08-08T18:03:13.115Z,100603.16
2022-08-08T18:05:44.118Z,100600.31
2022-08-08T18:08:36.857Z,100608.25
2022-08-08T18:11:16.891Z,100620.50
2022-08-08T18:13:47.430Z,100616.13
2022-08-08T18:16:16.927Z,100617.06
2022-08-08T18:18:53.659Z,100625.78
2022-08-08T18:21:59.983Z,100628.56
2022-08-08T18:24:19.123Z,100635.25
2022-08-08T18:26:54.325Z,100633.13
2022-08-08T18:29:33.523Z,100640.38
2022-08-08T18:32:07.940Z,100638.31
2022-08-08T18:34:39.420Z,100644.44
2022-08-08T18:37:09.557Z,100653.38
2022-08-08T18:39:42.202Z,100649.19
2022-08-08T18:42:16.487Z,100658.22
2022-08-08T18:44:55.987Z,100668.28
2022-08-08T18:47:27.209Z,100667.94
2022-08-08T18:49:59.960Z,100677.41
2022-08-08T18:52:32.884Z,100681.06
2022-08-08T18:55:10.826Z,100689.59
2022-08-08T18:57:44.822Z,100690.84
2022-08-08T19:00:21.286Z,100687.00
2022-08-08T19:03:03.977Z,100689.22
2022-08-08T19:05:45.471Z,100690.41
2022-08-08T19:08:29.339Z,100689.91
2022-08-08T19:11:01.199Z,100690.63
2022-08-08T19:13:38.388Z,100693.56
2022-08-08T19:16:20.655Z,100699.84
2022-08-08T19:19:01.887Z,100709.88
2022-08-08T19:21:33.505Z,100715.31
2022-08-08T19:24:38.790Z,100706.78
2022-08-08T19:27:04.827Z,100716.56
2022-08-08T19:29:35.650Z,100715.84
2022-08-08T19:32:12.974Z,100719.44
2022-08-08T19:34:49.398Z,100719.31
2022-08-08T19:37:27.852Z,100723.72
2022-08-08T19:40:14.679Z,100728.13
2022-08-08T19:42:47.207Z,100732.09
2022-08-08T19:45:59.739Z,100732.44
2022-08-08T19:48:29.469Z,100740.38
2022-08-08T19:50:55.677Z,100738.22
2022-08-08T19:53:52.030Z,100744.25
2022-08-08T19:56:13.058Z,100738.13
2022-08-08T19:58:41.863Z,100737.38
2022-08-08T20:01:17.292Z,100738.28
2022-08-08T20:04:02.376Z,100736.50
2022-08-08T20:06:31.641Z,100730.19
2022-08-08T20:08:59.965Z,100733.09
2022-08-08T20:11:32.743Z,100737.84
2022-08-08T20:14:33.406Z,100735.06
2022-08-08T20:16:54.954Z,100741.19
2022-08-08T20:19:24.150Z,100739.13
2022-08-08T20:21:52.858Z,100738.00
2022-08-08T20:24:21.163Z,100733.06
2022-08-08T20:26:50.712Z,100741.34
2022-08-08T20:29:20.341Z,100736.78
2022-08-08T20:32:10.236Z,100733.97
2022-08-08T20:34:39.357Z,100738.75
2022-08-08T20:37:16.212Z,100738.38
2022-08-08T20:39:51.852Z,100738.00
2022-08-08T20:42:28.716Z,100736.44
2022-08-08T20:44:58.657Z,100732.75
2022-08-08T20:47:28.849Z,100741.25
2022-08-08T20:50:05.837Z,100746.47
2022-08-08T20:52:34.079Z,100754.72
2022-08-08T20:55:16.259Z,100747.13
2022-08-08T20:57:51.214Z,100748.38
2022-08-08T21:00:20.357Z,100749.44
2022-08-08T21:02:52.767Z,100758.50
2022-08-08T21:05:21.620Z,100762.22
2022-08-08T21:08:37.189Z,100755.38
2022-08-08T21:10:41.089Z,100749.66
2022-08-08T21:13:09.324Z,100758.25
2022-08-08T21:16:05.339Z,100756.97
2022-08-08T21:18:28.010Z,100758.63
2022-08-08T21:20:56.881Z,100759.66
2022-08-08T21:24:01.806Z,100772.53
2022-08-08T21:26:13.537Z,100772.13
2022-08-08T21:29:00.465Z,100772.53
2022-08-08T21:31:58.261Z,100777.81
2022-08-08T21:34:19.045Z,100770.03
2022-08-08T21:36:53.019Z,100780.13
2022-08-08T21:39:41.558Z,100774.91
2022-08-08T21:42:13.644Z,100777.44
2022-08-08T21:44:58.005Z,100786.06
2022-08-08T21:48:00.394Z,100788.81
2022-08-08T21:50:15.784Z,100797.47
2022-08-08T21:54:33.712Z,100801.75
2022-08-08T21:56:25.995Z,100802.00
2022-08-08T21:58:21.672Z,100810.13
2022-08-08T22:01:04.283Z,100815.03
2022-08-08T22:03:32.755Z,100827.72
2022-08-08T22:06:02.556Z,100826.03
2022-08-08T22:08:37.210Z,100833.94
2022-08-08T22:11:51.491Z,100828.22
2022-08-08T22:13:58.612Z,100837.94
2022-08-08T22:16:28.315Z,100835.84
2022-08-08T22:18:56.806Z,100840.63
2022-08-08T22:21:25.179Z,100842.13
2022-08-08T22:24:02.637Z,100846.31
2022-08-08T22:26:32.242Z,100842.47
2022-08-08T22:29:12.842Z,100838.72
2022-08-08T22:31:58.562Z,100833.22
2022-08-08T22:34:39.133Z,100838.91
2022-08-08T22:37:27.743Z,100836.59
2022-08-08T22:40:00.889Z,100844.94
2022-08-08T22:42:31.731Z,100834.97
2022-08-08T22:45:05.349Z,100839.00
2022-08-08T22:47:47.255Z,100840.50
2022-08-08T22:50:26.178Z,100845.88
2022-08-08T22:54:27.753Z,100843.09
2022-08-08T22:55:58.329Z,100848.69
2022-08-08T22:58:33.957Z,100844.38
2022-08-08T23:01:26.861Z,100836.19
2022-08-08T23:03:55.583Z,100840.38
2022-08-08T23:06:26.118Z,100842.53
2022-08-08T23:09:00.418Z,100849.88
2022-08-08T23:12:29.103Z,100851.31
2022-08-08T23:14:21.123Z,100852.13
2022-08-08T23:16:57.684Z,100850.25
2022-08-08T23:19:32.197Z,100855.25
2022-08-08T23:22:05.283Z,100858.91
2022-08-08T23:24:41.153Z,100862.88
2022-08-08T23:27:17.291Z,100862.03
2022-08-08T23:30:00.530Z,100861.22
2022-08-08T23:32:28.718Z,100860.28
2022-08-08T23:34:59.006Z,100861.75
2022-08-08T23:38:01.450Z,100855.94
2022-08-08T23:40:22.234Z,100860.13
2022-08-08T23:42:51.352Z,100852.75
2022-08-08T23:49:01.957Z,100860.94
2022-08-08T23:49:07.547Z,100864.56
2022-08-08T23:50:57.441Z,100851.47
2022-08-08T23:53:55.914Z,100855.50
2022-08-08T23:56:32.029Z,100860.25
2022-08-08T23:59:02.298Z,100860.41
